createdAt,value
2019-02-08T00:00:40.427Z,1.50
2019-02-08T00:05:26.348Z,1.50
2019-02-08T00:10:12.951Z,1.60
2019-02-08T00:14:58.747Z,1.80
2019-02-08T00:19:44.562Z,1.80
2019-02-08T00:24:31.069Z,1.60
2019-02-08T00:29:16.972Z,1.60
2019-02-08T00:34:02.992Z,1.50
2019-02-08T00:38:49.091Z,1.40
2019-02-08T00:43:35.212Z,1.20
2019-02-08T00:48:21.274Z,1.00
2019-02-08T00:53:07.231Z,0.90
2019-02-08T00:57:53.269Z,0.90
2019-02-08T01:02:39.572Z,0.90
2019-02-08T01:07:26.067Z,0.90
2019-02-08T01:12:13.007Z,1.10
2019-02-08T01:16:58.854Z,1.20
2019-02-08T01:21:45.002Z,1.10
2019-02-08T01:26:31.036Z,1.00
2019-02-08T01:31:16.840Z,0.90
2019-02-08T01:36:02.634Z,0.90
2019-02-08T01:40:48.447Z,0.90
2019-02-08T01:45:34.895Z,0.90
2019-02-08T01:50:23.200Z,0.80
2019-02-08T01:55:09.319Z,0.80
2019-02-08T01:59:55.556Z,0.80
2019-02-08T02:04:41.566Z,0.80
2019-02-08T02:09:27.524Z,0.80
2019-02-08T02:14:13.411Z,0.90
2019-02-08T02:18:59.324Z,0.90
2019-02-08T02:23:45.174Z,0.80
2019-02-08T02:28:30.891Z,0.90
2019-02-08T02:33:16.803Z,0.80
2019-02-08T02:38:02.574Z,0.90
2019-02-08T02:42:48.861Z,1.00
2019-02-08T02:47:34.996Z,0.70
2019-02-08T02:52:20.724Z,0.80
2019-02-08T02:57:06.627Z,0.90
2019-02-08T03:01:52.374Z,1.00
2019-02-08T03:06:38.514Z,0.90
2019-02-08T03:11:24.587Z,0.80
2019-02-08T03:16:10.716Z,0.70
2019-02-08T03:20:56.438Z,0.70
2019-02-08T03:25:42.305Z,0.70
2019-02-08T03:30:45.957Z,0.60
2019-02-08T03:35:31.865Z,0.90
2019-02-08T03:40:20.957Z,0.80
2019-02-08T03:45:08.745Z,0.70
2019-02-08T03:49:54.530Z,0.60
2019-02-08T03:54:40.258Z,0.90
2019-02-08T03:59:26.170Z,0.90
2019-02-08T04:04:16.784Z,0.90
2019-02-08T04:09:02.691Z,0.80
2019-02-08T04:13:48.463Z,0.70
2019-02-08T04:18:34.286Z,0.50
2019-02-08T04:23:20.233Z,0.20
2019-02-08T04:28:06.211Z,-0.10
2019-02-08T04:32:52.041Z,0.10
2019-02-08T04:37:37.787Z,0.10
2019-02-08T04:42:23.565Z,-0.30
2019-02-08T04:47:09.314Z,-0.70
2019-02-08T04:51:55.722Z,-0.50
2019-02-08T04:56:41.451Z,-0.40
2019-02-08T05:01:27.317Z,-0.70
2019-02-08T05:06:13.309Z,-0.80
2019-02-08T05:10:59.216Z,-0.90
2019-02-08T05:15:44.950Z,-0.80
2019-02-08T05:20:32.304Z,-1.10
2019-02-08T05:25:18.375Z,-1.30
2019-02-08T05:30:06.532Z,-1.50
2019-02-08T05:34:52.472Z,-0.70
2019-02-08T05:39:38.387Z,-0.40
2019-02-08T05:44:24.104Z,-0.30
2019-02-08T05:49:09.944Z,-0.60
2019-02-08T05:53:55.690Z,-1.10
2019-02-08T05:58:41.477Z,-1.50
2019-02-08T06:03:27.364Z,-1.50
2019-02-08T06:08:13.327Z,-1.40
2019-02-08T06:12:59.217Z,-1.60
2019-02-08T06:17:45.073Z,-1.70
2019-02-08T06:22:31.003Z,-1.90
2019-02-08T06:27:16.961Z,-1.80
2019-02-08T06:32:02.717Z,-1.70
2019-02-08T06:36:48.559Z,-1.80
2019-02-08T06:41:34.317Z,-1.90
2019-02-08T06:46:20.722Z,-1.90
2019-02-08T06:51:06.918Z,-1.60
2019-02-08T06:55:53.940Z,-1.60
2019-02-08T07:00:57.861Z,-1.10
2019-02-08T07:06:01.268Z,-0.30
2019-02-08T07:10:57.879Z,0.00
2019-02-08T07:15:55.820Z,0.50
2019-02-08T07:20:59.043Z,0.20
2019-02-08T07:26:06.453Z,0.30
2019-02-08T07:31:01.514Z,0.80
2019-02-08T07:36:09.543Z,0.70
2019-02-08T07:41:38.088Z,0.80
2019-02-08T07:46:43.577Z,1.10
2019-02-08T07:51:49.825Z,1.10
2019-02-08T07:56:56.093Z,1.50
2019-02-08T08:02:06.656Z,1.40
2019-02-08T08:07:07.924Z,1.10
2019-02-08T08:11:59.568Z,1.60
2019-02-08T08:17:04.673Z,2.30
2019-02-08T08:22:09.995Z,2.60
2019-02-08T08:27:09.686Z,3.10
2019-02-08T08:32:07.521Z,3.50
2019-02-08T08:37:20.623Z,4.00
2019-02-08T08:42:29.843Z,3.80
2019-02-08T08:47:51.081Z,5.10
2019-02-08T08:53:00.600Z,5.50
2019-02-08T08:58:25.467Z,6.00
2019-02-08T09:03:40.170Z,6.80
2019-02-08T09:08:53.218Z,7.40
2019-02-08T09:14:22.865Z,6.00
2019-02-08T09:19:57.466Z,5.60
2019-02-08T09:25:29.147Z,5.60
2019-02-08T09:30:41.780Z,5.30
2019-02-08T09:36:02.467Z,5.30
2019-02-08T09:41:25.452Z,6.10
2019-02-08T09:47:02.214Z,8.40
2019-02-08T09:52:30.818Z,6.90
2019-02-08T09:57:56.152Z,6.80
2019-02-08T10:03:13.030Z,6.90
2019-02-08T10:08:29.531Z,8.00
2019-02-08T10:13:44.988Z,7.00
2019-02-08T10:19:07.621Z,7.10
2019-02-08T10:24:22.539Z,7.30
2019-02-08T10:29:48.331Z,6.80
2019-02-08T10:35:25.839Z,7.00
2019-02-08T10:40:51.941Z,8.10
2019-02-08T10:46:13.568Z,7.90
2019-02-08T10:51:58.065Z,8.60
2019-02-08T10:57:23.446Z,9.40
2019-02-08T11:03:02.217Z,10.20
2019-02-08T11:08:27.692Z,11.00
2019-02-08T11:14:06.490Z,10.70
2019-02-08T11:19:22.132Z,10.90
2019-02-08T11:24:07.931Z,12.20
2019-02-08T11:28:53.931Z,11.10
2019-02-08T11:33:39.808Z,11.10
2019-02-08T11:38:25.700Z,11.20
2019-02-08T11:43:11.649Z,11.00
2019-02-08T11:47:57.558Z,11.80
2019-02-08T11:52:43.400Z,13.10
2019-02-08T11:57:29.225Z,14.00
2019-02-08T12:02:15.255Z,13.40
2019-02-08T12:07:01.141Z,12.80
2019-02-08T12:11:47.102Z,14.30
2019-02-08T12:16:33.149Z,15.20
2019-02-08T12:21:19.218Z,17.10
2019-02-08T12:26:05.161Z,15.90
2019-02-08T12:30:51.399Z,18.20
2019-02-08T12:35:37.554Z,17.30
2019-02-08T12:40:23.485Z,18.50
2019-02-08T12:45:09.674Z,19.90
2019-02-08T12:49:55.569Z,21.30
2019-02-08T12:54:41.438Z,18.80
2019-02-08T12:59:27.508Z,21.90
2019-02-08T13:04:13.457Z,23.60
2019-02-08T13:08:59.680Z,22.30
2019-02-08T13:13:45.771Z,23.40
2019-02-08T13:18:31.608Z,24.50
2019-02-08T13:23:17.643Z,24.30
2019-02-08T13:28:03.459Z,24.40
2019-02-08T13:32:49.717Z,23.40
2019-02-08T13:37:35.913Z,22.10
2019-02-08T13:42:21.984Z,23.60
2019-02-08T13:47:07.981Z,23.80
2019-02-08T13:51:54.020Z,22.50
2019-02-08T13:56:40.133Z,21.10
2019-02-08T14:01:26.059Z,20.80
2019-02-08T14:06:12.194Z,20.60
2019-02-08T14:10:58.217Z,19.90
2019-02-08T14:15:44.106Z,19.10
2019-02-08T14:20:50.107Z,17.90
2019-02-08T14:25:36.108Z,17.80
2019-02-08T14:30:25.698Z,17.70
2019-02-08T14:35:12.593Z,16.60
2019-02-08T14:39:58.669Z,18.60
2019-02-08T14:44:44.581Z,20.20
2019-02-08T14:49:30.528Z,21.70
2019-02-08T14:54:16.610Z,22.40
2019-02-08T14:59:03.024Z,21.10
2019-02-08T15:03:48.998Z,20.50
2019-02-08T15:08:34.864Z,20.60
2019-02-08T15:13:21.198Z,19.90
2019-02-08T15:18:07.737Z,19.40
2019-02-08T15:22:53.662Z,18.40
2019-02-08T15:27:39.822Z,16.00
2019-02-08T15:32:26.064Z,14.40
2019-02-08T15:37:12.085Z,13.10
2019-02-08T15:41:58.096Z,12.00
2019-02-08T15:46:44.024Z,11.00
2019-02-08T15:51:29.985Z,9.70
2019-02-08T15:56:17.467Z,9.10
2019-02-08T16:01:03.531Z,8.50
2019-02-08T16:05:49.600Z,8.00
2019-02-08T16:10:35.631Z,7.50
2019-02-08T16:15:24.174Z,7.00
2019-02-08T16:20:11.049Z,6.50
2019-02-08T16:24:57.131Z,5.90
2019-02-08T16:29:43.030Z,5.50
2019-02-08T16:34:29.223Z,5.10
2019-02-08T16:39:15.225Z,4.40
2019-02-08T16:44:01.282Z,4.20
2019-02-08T16:48:47.146Z,4.30
2019-02-08T16:53:33.137Z,4.00
2019-02-08T16:58:19.160Z,3.80
2019-02-08T17:03:07.862Z,3.80
2019-02-08T17:07:54.032Z,3.60
2019-02-08T17:12:40.259Z,3.30
2019-02-08T17:17:26.586Z,3.50
2019-02-08T17:22:12.776Z,3.60
2019-02-08T17:26:58.718Z,3.50
2019-02-08T17:31:44.552Z,3.30
2019-02-08T17:36:30.567Z,3.30
2019-02-08T17:41:16.803Z,3.10
2019-02-08T17:46:02.784Z,2.70
2019-02-08T17:50:48.866Z,2.60
2019-02-08T17:55:35.183Z,2.50
2019-02-08T18:00:54.031Z,2.40
2019-02-08T18:05:40.123Z,2.30
2019-02-08T18:10:26.547Z,2.10
2019-02-08T18:15:15.576Z,2.00
2019-02-08T18:20:01.682Z,1.90
2019-02-08T18:24:48.051Z,1.80
2019-02-08T18:29:34.018Z,1.60
2019-02-08T18:34:19.954Z,1.50
2019-02-08T18:39:08.237Z,1.50
2019-02-08T18:43:54.089Z,1.50
2019-02-08T18:48:40.119Z,1.20
2019-02-08T18:53:26.074Z,1.20
2019-02-08T18:58:18.796Z,1.10
2019-02-08T19:02:59.875Z,1.10
2019-02-08T19:07:45.797Z,1.00
2019-02-08T19:12:32.029Z,1.10
2019-02-08T19:17:17.952Z,1.00
2019-02-08T19:22:04.077Z,1.00
2019-02-08T19:26:50.076Z,1.00
2019-02-08T19:31:36.083Z,0.90
2019-02-08T19:36:22.696Z,0.60
2019-02-08T19:41:08.694Z,0.60
2019-02-08T19:45:54.488Z,0.60
2019-02-08T19:50:42.260Z,0.60
2019-02-08T19:55:28.605Z,0.40
2019-02-08T20:00:16.915Z,0.20
2019-02-08T20:05:02.900Z,0.00
2019-02-08T20:09:48.974Z,-0.10
2019-02-08T20:14:35.066Z,-0.10
2019-02-08T20:19:21.042Z,0.10
2019-02-08T20:24:07.109Z,0.00
2019-02-08T20:28:53.048Z,0.10
2019-02-08T20:33:38.968Z,0.00
2019-02-08T20:38:24.941Z,-0.10
2019-02-08T20:43:10.790Z,-0.20
2019-02-08T20:47:57.790Z,-0.40
2019-02-08T20:52:43.878Z,-0.40
2019-02-08T20:57:29.964Z,-0.10
2019-02-08T21:02:16.416Z,-0.10
2019-02-08T21:07:02.347Z,-0.30
2019-02-08T21:11:49.938Z,-0.20
2019-02-08T21:16:35.764Z,0.10
2019-02-08T21:21:21.598Z,0.10
2019-02-08T21:26:07.567Z,0.10
2019-02-08T21:30:53.616Z,0.10
2019-02-08T21:35:39.603Z,0.30
2019-02-08T21:40:26.818Z,0.30
2019-02-08T21:45:17.594Z,0.20
2019-02-08T21:50:03.692Z,0.30
2019-02-08T21:54:49.573Z,0.30
2019-02-08T21:59:35.452Z,0.10
2019-02-08T22:04:21.456Z,0.00
2019-02-08T22:09:09.004Z,-0.10
2019-02-08T22:13:54.955Z,0.00
2019-02-08T22:18:40.956Z,0.10
2019-02-08T22:23:26.832Z,0.20
2019-02-08T22:28:12.831Z,0.10
2019-02-08T22:32:59.181Z,-0.20
2019-02-08T22:37:46.239Z,0.10
2019-02-08T22:42:32.082Z,0.30
2019-02-08T22:47:17.976Z,0.30
2019-02-08T22:52:04.367Z,0.20
2019-02-08T22:56:50.170Z,0.10
2019-02-08T23:01:41.371Z,-0.20
2019-02-08T23:06:27.544Z,-0.30
2019-02-08T23:11:13.390Z,-0.30
2019-02-08T23:15:59.548Z,-0.40
2019-02-08T23:20:45.538Z,-0.30
2019-02-08T23:25:31.471Z,-0.30
2019-02-08T23:30:17.860Z,-0.10
2019-02-08T23:35:04.856Z,-0.40
2019-02-08T23:39:50.859Z,-0.70
2019-02-08T23:44:36.758Z,-0.80
2019-02-08T23:49:22.661Z,-0.70
2019-02-08T23:54:08.731Z,-0.60
2019-02-08T23:58:54.567Z,-0.60
